sensor_id;sensor_type;location;lat;lon;timestamp;pressure;altitude;pressure_sealevel;temperature;humidity
35655;BME280;21773;50.010;19.972;2024-02-21T00:00:42;99444.78;;;10.77;100.00
35655;BME280;21773;50.010;19.972;2024-02-21T00:03:45;99445.41;;;10.73;100.00
35655;BME280;21773;50.010;19.972;2024-02-21T00:06:49;99443.97;;;10.64;100.00
35655;BME280;21773;50.010;19.972;2024-02-21T00:09:52;99440.03;;;10.60;100.00
35655;BME280;21773;50.010;19.972;2024-02-21T00:12:56;99438.16;;;10.54;100.00
35655;BME280;21773;50.010;19.972;2024-02-21T00:16:01;99437.31;;;10.47;100.00
35655;BME280;21773;50.010;19.972;2024-02-21T00:22:39;99361.16;;;9.66;100.00
35655;BME280;21773;50.010;19.972;2024-02-21T00:25:43;99448.66;;;10.09;100.00
35655;BME280;21773;50.010;19.972;2024-02-21T00:28:47;99449.06;;;9.99;100.00
35655;BME280;21773;50.010;19.972;2024-02-21T00:31:51;99442.00;;;9.85;100.00
35655;BME280;21773;50.010;19.972;2024-02-21T00:34:54;99445.28;;;9.81;100.00
35655;BME280;21773;50.010;19.972;2024-02-21T00:37:58;99443.63;;;9.80;100.00
35655;BME280;21773;50.010;19.972;2024-02-21T00:41:01;99435.56;;;9.86;100.00
35655;BME280;21773;50.010;19.972;2024-02-21T00:44:06;99438.50;;;9.91;100.00
35655;BME280;21773;50.010;19.972;2024-02-21T00:47:10;99433.31;;;9.96;100.00
35655;BME280;21773;50.010;19.972;2024-02-21T00:50:13;99421.09;;;10.00;100.00
35655;BME280;21773;50.010;19.972;2024-02-21T00:53:16;99420.69;;;10.10;100.00
35655;BME280;21773;50.010;19.972;2024-02-21T00:56:19;99420.06;;;10.08;100.00
35655;BME280;21773;50.010;19.972;2024-02-21T00:59:24;99416.75;;;10.06;100.00
35655;BME280;21773;50.010;19.972;2024-02-21T01:02:27;99413.00;;;10.07;100.00
35655;BME280;21773;50.010;19.972;2024-02-21T01:05:33;99418.63;;;10.06;100.00
35655;BME280;21773;50.010;19.972;2024-02-21T01:08:36;99409.91;;;10.04;100.00
35655;BME280;21773;50.010;19.972;2024-02-21T01:11:39;99409.91;;;10.04;100.00
35655;BME280;21773;50.010;19.972;2024-02-21T01:14:44;99406.19;;;10.05;100.00
35655;BME280;21773;50.010;19.972;2024-02-21T01:17:47;99410.09;;;10.02;100.00
35655;BME280;21773;50.010;19.972;2024-02-21T01:20:51;99407.22;;;10.04;100.00
35655;BME280;21773;50.010;19.972;2024-02-21T01:23:54;99408.03;;;9.91;100.00
35655;BME280;21773;50.010;19.972;2024-02-21T01:26:58;99403.06;;;9.94;100.00
35655;BME280;21773;50.010;19.972;2024-02-21T01:30:03;99406.78;;;9.87;100.00
35655;BME280;21773;50.010;19.972;2024-02-21T01:33:07;99395.16;;;9.80;100.00
35655;BME280;21773;50.010;19.972;2024-02-21T01:36:11;99389.34;;;9.83;100.00
35655;BME280;21773;50.010;19.972;2024-02-21T01:39:14;99391.44;;;9.81;100.00
35655;BME280;21773;50.010;19.972;2024-02-21T01:42:18;99388.09;;;9.79;100.00
35655;BME280;21773;50.010;19.972;2024-02-21T01:45:22;99382.50;;;9.74;100.00
35655;BME280;21773;50.010;19.972;2024-02-21T01:48:25;99376.50;;;9.65;100.00
35655;BME280;21773;50.010;19.972;2024-02-21T01:51:30;99382.06;;;9.64;100.00
35655;BME280;21773;50.010;19.972;2024-02-21T01:54:33;99378.75;;;9.55;100.00
35655;BME280;21773;50.010;19.972;2024-02-21T01:57:36;99373.75;;;9.45;100.00
35655;BME280;21773;50.010;19.972;2024-02-21T02:00:44;99378.88;;;9.34;100.00
35655;BME280;21773;50.010;19.972;2024-02-21T02:03:48;99376.81;;;9.36;100.00
35655;BME280;21773;50.010;19.972;2024-02-21T02:06:51;99345.94;;;9.19;100.00
35655;BME280;21773;50.010;19.972;2024-02-21T02:09:56;99344.03;;;9.19;100.00
35655;BME280;21773;50.010;19.972;2024-02-21T02:13:00;99368.09;;;9.34;100.00
35655;BME280;21773;50.010;19.972;2024-02-21T02:16:05;99361.28;;;9.31;100.00
35655;BME280;21773;50.010;19.972;2024-02-21T02:19:09;99366.25;;;9.34;100.00
35655;BME280;21773;50.010;19.972;2024-02-21T02:22:19;99363.56;;;9.34;100.00
35655;BME280;21773;50.010;19.972;2024-02-21T02:25:26;99351.13;;;9.27;100.00
35655;BME280;21773;50.010;19.972;2024-02-21T02:28:29;99368.13;;;9.40;100.00
35655;BME280;21773;50.010;19.972;2024-02-21T02:31:33;99363.78;;;9.39;100.00
35655;BME280;21773;50.010;19.972;2024-02-21T02:34:37;99338.69;;;9.26;100.00
35655;BME280;21773;50.010;19.972;2024-02-21T02:37:47;99354.47;;;9.35;100.00
35655;BME280;21773;50.010;19.972;2024-02-21T02:40:52;99361.09;;;9.33;100.00
35655;BME280;21773;50.010;19.972;2024-02-21T02:43:55;99363.38;;;9.36;100.00
35655;BME280;21773;50.010;19.972;2024-02-21T02:46:59;99358.81;;;9.36;100.00
35655;BME280;21773;50.010;19.972;2024-02-21T02:50:02;99355.94;;;9.38;100.00
35655;BME280;21773;50.010;19.972;2024-02-21T02:53:06;99357.38;;;9.40;100.00
35655;BME280;21773;50.010;19.972;2024-02-21T02:56:15;99357.19;;;9.48;100.00
35655;BME280;21773;50.010;19.972;2024-02-21T02:59:18;99353.03;;;9.46;100.00
35655;BME280;21773;50.010;19.972;2024-02-21T03:02:21;99358.66;;;9.51;100.00
35655;BME280;21773;50.010;19.972;2024-02-21T03:05:24;99358.88;;;9.56;100.00
35655;BME280;21773;50.010;19.972;2024-02-21T03:08:28;99348.13;;;9.63;100.00
35655;BME280;21773;50.010;19.972;2024-02-21T03:11:32;99348.31;;;9.68;100.00
35655;BME280;21773;50.010;19.972;2024-02-21T03:14:36;99343.16;;;9.73;100.00
35655;BME280;21773;50.010;19.972;2024-02-21T03:17:39;99337.97;;;9.78;100.00
35655;BME280;21773;50.010;19.972;2024-02-21T03:20:42;99341.31;;;9.80;100.00
35655;BME280;21773;50.010;19.972;2024-02-21T03:23:46;99340.47;;;9.79;100.00
35655;BME280;21773;50.010;19.972;2024-02-21T03:26:50;99311.69;;;9.67;100.00
35655;BME280;21773;50.010;19.972;2024-02-21T03:29:53;99337.56;;;9.81;100.00
35655;BME280;21773;50.010;19.972;2024-02-21T03:32:56;99308.97;;;9.60;100.00
35655;BME280;21773;50.010;19.972;2024-02-21T03:36:00;99338.59;;;9.73;100.00
35655;BME280;21773;50.010;19.972;2024-02-21T03:39:03;99335.06;;;9.66;100.00
35655;BME280;21773;50.010;19.972;2024-02-21T03:42:08;99343.34;;;9.65;100.00
35655;BME280;21773;50.010;19.972;2024-02-21T03:45:11;99337.75;;;9.60;100.00
35655;BME280;21773;50.010;19.972;2024-02-21T03:48:14;99341.06;;;9.62;100.00
35655;BME280;21773;50.010;19.972;2024-02-21T03:51:17;99345.84;;;9.66;100.00
35655;BME280;21773;50.010;19.972;2024-02-21T03:54:20;99345.84;;;9.66;100.00
35655;BME280;21773;50.010;19.972;2024-02-21T03:57:25;99335.06;;;9.60;100.00
35655;BME280;21773;50.010;19.972;2024-02-21T04:00:28;99342.13;;;9.67;100.00
35655;BME280;21773;50.010;19.972;2024-02-21T04:03:31;99328.00;;;9.58;100.00
35655;BME280;21773;50.010;19.972;2024-02-21T04:06:34;99340.44;;;9.60;100.00
35655;BME280;21773;50.010;19.972;2024-02-21T04:09:38;99320.94;;;9.44;100.00
35655;BME280;21773;50.010;19.972;2024-02-21T04:12:43;99338.56;;;9.53;100.00
35655;BME280;21773;50.010;19.972;2024-02-21T04:15:46;99333.59;;;9.64;100.00
35655;BME280;21773;50.010;19.972;2024-02-21T04:18:49;99331.34;;;9.61;100.00
35655;BME280;21773;50.010;19.972;2024-02-21T04:21:52;99321.41;;;9.61;100.00
35655;BME280;21773;50.010;19.972;2024-02-21T04:24:55;99313.72;;;9.58;100.00
35655;BME280;21773;50.010;19.972;2024-02-21T04:28:00;99314.16;;;9.62;100.00
35655;BME280;21773;50.010;19.972;2024-02-21T04:31:03;99322.44;;;9.60;100.00
35655;BME280;21773;50.010;19.972;2024-02-21T04:34:06;99329.28;;;9.69;100.00
35655;BME280;21773;50.010;19.972;2024-02-21T04:37:10;99293.44;;;9.55;100.00
35655;BME280;21773;50.010;19.972;2024-02-21T04:40:13;99312.50;;;9.67;100.00
35655;BME280;21773;50.010;19.972;2024-02-21T04:43:18;99268.59;;;9.47;100.00
35655;BME280;21773;50.010;19.972;2024-02-21T04:46:21;99300.91;;;9.60;100.00
35655;BME280;21773;50.010;19.972;2024-02-21T04:49:24;99288.44;;;9.46;100.00
35655;BME280;21773;50.010;19.972;2024-02-21T04:52:27;99280.41;;;9.52;100.00
35655;BME280;21773;50.010;19.972;2024-02-21T04:55:31;99284.31;;;9.50;100.00
35655;BME280;21773;50.010;19.972;2024-02-21T04:58:39;99292.38;;;9.50;100.00
35655;BME280;21773;50.010;19.972;2024-02-21T05:01:42;99297.97;;;9.48;100.00
35655;BME280;21773;50.010;19.972;2024-02-21T05:04:45;99312.69;;;9.52;100.00
35655;BME280;21773;50.010;19.972;2024-02-21T05:07:49;99312.28;;;9.55;100.00
35655;BME280;21773;50.010;19.972;2024-02-21T05:10:52;99312.09;;;9.57;100.00
35655;BME280;21773;50.010;19.972;2024-02-21T05:13:57;99314.16;;;9.62;100.00
35655;BME280;21773;50.010;19.972;2024-02-21T05:17:01;99313.72;;;9.65;100.00
35655;BME280;21773;50.010;19.972;2024-02-21T05:20:05;99311.25;;;9.70;100.00
35655;BME280;21773;50.010;19.972;2024-02-21T05:23:09;99302.97;;;9.71;100.00
35655;BME280;21773;50.010;19.972;2024-02-21T05:26:20;99308.97;;;9.73;100.00
35655;BME280;21773;50.010;19.972;2024-02-21T05:29:24;99277.09;;;9.57;100.00
35655;BME280;21773;50.010;19.972;2024-02-21T05:32:27;99306.69;;;9.64;100.00
35655;BME280;21773;50.010;19.972;2024-02-21T05:35:31;99307.34;;;9.72;100.00
35655;BME280;21773;50.010;19.972;2024-02-21T05:38:35;99306.28;;;9.73;100.00
35655;BME280;21773;50.010;19.972;2024-02-21T05:41:38;99303.59;;;9.73;100.00
35655;BME280;21773;50.010;19.972;2024-02-21T05:44:42;99285.16;;;9.70;100.00
35655;BME280;21773;50.010;19.972;2024-02-21T05:47:45;99306.69;;;9.83;100.00
35655;BME280;21773;50.010;19.972;2024-02-21T05:50:49;99298.44;;;9.91;100.00
35655;BME280;21773;50.010;19.972;2024-02-21T05:53:52;99301.53;;;9.95;100.00
35655;BME280;21773;50.010;19.972;2024-02-21T05:56:55;99300.47;;;10.02;100.00
35655;BME280;21773;50.010;19.972;2024-02-21T06:00:00;99299.84;;;10.07;100.00
35655;BME280;21773;50.010;19.972;2024-02-21T06:03:13;99273.16;;;9.99;100.00
35655;BME280;21773;50.010;19.972;2024-02-21T06:06:16;99302.16;;;10.17;100.00
35655;BME280;21773;50.010;19.972;2024-02-21T06:09:19;99304.47;;;10.20;100.00
35655;BME280;21773;50.010;19.972;2024-02-21T06:12:22;99288.06;;;10.28;100.00
35655;BME280;21773;50.010;19.972;2024-02-21T06:15:27;99300.50;;;10.35;100.00
35655;BME280;21773;50.010;19.972;2024-02-21T06:18:30;99273.13;;;10.32;100.00
35655;BME280;21773;50.010;19.972;2024-02-21T06:21:33;99293.41;;;10.48;100.00
35655;BME280;21773;50.010;19.972;2024-02-21T06:24:37;99287.19;;;10.54;100.00
35655;BME280;21773;50.010;19.972;2024-02-21T06:27:40;99285.06;;;10.62;100.00
35655;BME280;21773;50.010;19.972;2024-02-21T06:30:44;99273.25;;;10.63;100.00
35655;BME280;21773;50.010;19.972;2024-02-21T06:33:48;99288.72;;;10.88;100.00
35655;BME280;21773;50.010;19.972;2024-02-21T06:36:51;99274.59;;;10.92;100.00
35655;BME280;21773;50.010;19.972;2024-02-21T06:39:54;99277.03;;;11.00;100.00
35655;BME280;21773;50.010;19.972;2024-02-21T06:42:57;99282.97;;;11.15;100.00
35655;BME280;21773;50.010;19.972;2024-02-21T06:46:02;99281.97;;;11.10;100.00
35655;BME280;21773;50.010;19.972;2024-02-21T06:49:05;99291.50;;;11.19;100.00
35655;BME280;21773;50.010;19.972;2024-02-21T06:52:09;99303.31;;;11.56;100.00
35655;BME280;21773;50.010;19.972;2024-02-21T06:55:12;99298.84;;;13.33;100.00
35655;BME280;21773;50.010;19.972;2024-02-21T06:58:15;99297.00;;;16.22;100.00
35655;BME280;21773;50.010;19.972;2024-02-21T07:01:20;99298.34;;;18.25;100.00
35655;BME280;21773;50.010;19.972;2024-02-21T07:04:23;99302.81;;;18.41;100.00
35655;BME280;21773;50.010;19.972;2024-02-21T07:07:29;99295.78;;;17.82;100.00
35655;BME280;21773;50.010;19.972;2024-02-21T07:10:32;99283.78;;;17.07;100.00
35655;BME280;21773;50.010;19.972;2024-02-21T07:13:36;99282.69;;;16.65;100.00
35655;BME280;21773;50.010;19.972;2024-02-21T07:16:40;99286.31;;;16.54;100.00
35655;BME280;21773;50.010;19.972;2024-02-21T07:19:43;99282.69;;;16.86;100.00
35655;BME280;21773;50.010;19.972;2024-02-21T07:22:47;99280.16;;;17.50;100.00
35655;BME280;21773;50.010;19.972;2024-02-21T07:25:50;99282.19;;;18.55;100.00
35655;BME280;21773;50.010;19.972;2024-02-21T07:28:53;99267.31;;;20.62;100.00
35655;BME280;21773;50.010;19.972;2024-02-21T07:31:58;99269.63;;;23.55;100.00
35655;BME280;21773;50.010;19.972;2024-02-21T07:35:01;99270.31;;;26.39;82.76
35655;BME280;21773;50.010;19.972;2024-02-21T07:38:05;99269.94;;;28.10;71.31
35655;BME280;21773;50.010;19.972;2024-02-21T07:41:09;99272.41;;;28.93;65.35
35655;BME280;21773;50.010;19.972;2024-02-21T07:44:12;99254.28;;;28.40;64.85
35655;BME280;21773;50.010;19.972;2024-02-21T07:47:16;99262.63;;;27.54;64.72
35655;BME280;21773;50.010;19.972;2024-02-21T07:50:20;99264.47;;;26.71;67.50
35655;BME280;21773;50.010;19.972;2024-02-21T07:53:24;99224.53;;;26.24;68.30
35655;BME280;21773;50.010;19.972;2024-02-21T07:56:27;99242.47;;;26.35;63.67
35655;BME280;21773;50.010;19.972;2024-02-21T07:59:31;99246.47;;;28.25;62.71
35655;BME280;21773;50.010;19.972;2024-02-21T08:02:35;99238.88;;;29.98;52.45
35655;BME280;21773;50.010;19.972;2024-02-21T08:05:39;99240.88;;;30.42;51.44
35655;BME280;21773;50.010;19.972;2024-02-21T08:08:43;99233.53;;;29.72;52.16
35655;BME280;21773;50.010;19.972;2024-02-21T08:11:46;99243.03;;;29.71;51.84
35655;BME280;21773;50.010;19.972;2024-02-21T08:14:49;99236.03;;;29.86;53.17
35655;BME280;21773;50.010;19.972;2024-02-21T08:17:53;99230.44;;;29.94;51.45
35655;BME280;21773;50.010;19.972;2024-02-21T08:21:00;99225.19;;;29.93;50.37
35655;BME280;21773;50.010;19.972;2024-02-21T08:24:04;99222.84;;;29.12;50.98
35655;BME280;21773;50.010;19.972;2024-02-21T08:27:07;99228.53;;;26.80;55.33
35655;BME280;21773;50.010;19.972;2024-02-21T08:30:11;99224.25;;;24.63;61.59
35655;BME280;21773;50.010;19.972;2024-02-21T08:33:16;99215.44;;;22.89;70.08
35655;BME280;21773;50.010;19.972;2024-02-21T08:36:20;99214.63;;;21.39;78.50
35655;BME280;21773;50.010;19.972;2024-02-21T08:39:24;99206.56;;;20.35;94.83
35655;BME280;21773;50.010;19.972;2024-02-21T08:42:27;99211.78;;;19.60;100.00
35655;BME280;21773;50.010;19.972;2024-02-21T08:45:34;99200.56;;;20.22;94.91
35655;BME280;21773;50.010;19.972;2024-02-21T08:48:38;99207.41;;;22.45;81.17
35655;BME280;21773;50.010;19.972;2024-02-21T08:51:41;99208.19;;;24.24;70.79
35655;BME280;21773;50.010;19.972;2024-02-21T08:54:45;99205.84;;;25.27;69.35
35655;BME280;21773;50.010;19.972;2024-02-21T08:57:48;99198.66;;;25.39;67.86
35655;BME280;21773;50.010;19.972;2024-02-21T09:00:52;99186.66;;;25.08;65.22
35655;BME280;21773;50.010;19.972;2024-02-21T09:03:56;99195.63;;;25.27;67.66
35655;BME280;21773;50.010;19.972;2024-02-21T09:07:00;99187.25;;;25.19;65.29
35655;BME280;21773;50.010;19.972;2024-02-21T09:10:04;99183.09;;;25.43;63.58
35655;BME280;21773;50.010;19.972;2024-02-21T09:13:07;99177.38;;;27.34;59.87
35655;BME280;21773;50.010;19.972;2024-02-21T09:16:10;99186.88;;;28.48;56.35
35655;BME280;21773;50.010;19.972;2024-02-21T09:19:15;99194.00;;;28.11;54.05
35655;BME280;21773;50.010;19.972;2024-02-21T09:22:20;99188.16;;;27.35;56.81
35655;BME280;21773;50.010;19.972;2024-02-21T09:25:23;99182.31;;;26.41;58.42
35655;BME280;21773;50.010;19.972;2024-02-21T09:28:26;99193.88;;;25.67;61.30
35655;BME280;21773;50.010;19.972;2024-02-21T09:31:29;99191.81;;;25.73;63.96
35655;BME280;21773;50.010;19.972;2024-02-21T09:34:34;99196.41;;;26.61;60.72
35655;BME280;21773;50.010;19.972;2024-02-21T09:37:38;99196.25;;;28.64;54.87
35655;BME280;21773;50.010;19.972;2024-02-21T09:40:41;99208.16;;;31.21;46.72
35655;BME280;21773;50.010;19.972;2024-02-21T09:43:45;99197.28;;;33.02;42.28
35655;BME280;21773;50.010;19.972;2024-02-21T09:46:52;99177.38;;;33.03;38.41
35655;BME280;21773;50.010;19.972;2024-02-21T09:50:01;99195.41;;;32.90;37.64
35655;BME280;21773;50.010;19.972;2024-02-21T09:53:06;99189.09;;;32.62;39.86
35655;BME280;21773;50.010;19.972;2024-02-21T09:56:10;99192.06;;;31.66;41.73
35655;BME280;21773;50.010;19.972;2024-02-21T09:59:16;99183.91;;;30.61;41.20
35655;BME280;21773;50.010;19.972;2024-02-21T10:02:20;99191.34;;;31.05;44.34
35655;BME280;21773;50.010;19.972;2024-02-21T10:05:25;99194.75;;;30.41;44.77
35655;BME280;21773;50.010;19.972;2024-02-21T10:08:29;99178.53;;;29.98;46.49
35655;BME280;21773;50.010;19.972;2024-02-21T10:11:32;99162.03;;;28.14;47.79
35655;BME280;21773;50.010;19.972;2024-02-21T10:14:37;99159.00;;;27.72;50.58
35655;BME280;21773;50.010;19.972;2024-02-21T10:17:40;99143.06;;;26.78;52.96
35655;BME280;21773;50.010;19.972;2024-02-21T10:20:44;99153.13;;;25.95;55.95
35655;BME280;21773;50.010;19.972;2024-02-21T10:23:49;99153.31;;;25.99;58.01
35655;BME280;21773;50.010;19.972;2024-02-21T10:26:59;99145.03;;;26.29;56.05
35655;BME280;21773;50.010;19.972;2024-02-21T10:30:02;99150.34;;;26.48;56.31
35655;BME280;21773;50.010;19.972;2024-02-21T10:33:06;99142.47;;;26.33;55.27
35655;BME280;21773;50.010;19.972;2024-02-21T10:36:11;99137.50;;;26.52;55.58
35655;BME280;21773;50.010;19.972;2024-02-21T10:39:15;99130.84;;;26.53;56.25
35655;BME280;21773;50.010;19.972;2024-02-21T10:42:21;99125.63;;;26.21;55.88
35655;BME280;21773;50.010;19.972;2024-02-21T10:45:29;99112.75;;;26.47;56.75
35655;BME280;21773;50.010;19.972;2024-02-21T10:48:42;99109.56;;;26.71;54.25
35655;BME280;21773;50.010;19.972;2024-02-21T10:51:54;99121.00;;;29.45;48.89
35655;BME280;21773;50.010;19.972;2024-02-21T10:55:03;99121.94;;;32.23;41.85
35655;BME280;21773;50.010;19.972;2024-02-21T10:58:08;99118.59;;;34.34;38.22
35655;BME280;21773;50.010;19.972;2024-02-21T11:01:13;99100.38;;;35.90;34.69
35655;BME280;21773;50.010;19.972;2024-02-21T11:04:17;99101.53;;;36.70;32.43
35655;BME280;21773;50.010;19.972;2024-02-21T11:07:22;99087.63;;;35.96;34.05
35655;BME280;21773;50.010;19.972;2024-02-21T11:10:26;99083.25;;;34.04;36.17
35655;BME280;21773;50.010;19.972;2024-02-21T11:13:30;99065.16;;;31.57;40.26
35655;BME280;21773;50.010;19.972;2024-02-21T11:16:38;99080.91;;;29.34;45.23
35655;BME280;21773;50.010;19.972;2024-02-21T11:19:44;99074.13;;;27.42;51.01
35655;BME280;21773;50.010;19.972;2024-02-21T11:22:49;99081.03;;;25.74;56.51
35655;BME280;21773;50.010;19.972;2024-02-21T11:25:52;99071.13;;;24.30;62.17
35655;BME280;21773;50.010;19.972;2024-02-21T11:29:06;99069.03;;;23.67;66.50
35655;BME280;21773;50.010;19.972;2024-02-21T11:32:13;99043.25;;;23.77;65.95
35655;BME280;21773;50.010;19.972;2024-02-21T11:35:19;99056.44;;;24.48;64.89
35655;BME280;21773;50.010;19.972;2024-02-21T11:38:24;99054.59;;;24.02;65.02
35655;BME280;21773;50.010;19.972;2024-02-21T11:41:27;99056.13;;;22.98;67.86
35655;BME280;21773;50.010;19.972;2024-02-21T11:44:31;99042.63;;;21.97;71.96
35655;BME280;21773;50.010;19.972;2024-02-21T11:47:34;99045.19;;;21.31;77.13
35655;BME280;21773;50.010;19.972;2024-02-21T11:50:41;99043.41;;;21.16;80.65
35655;BME280;21773;50.010;19.972;2024-02-21T11:53:46;99039.41;;;20.99;81.69
35655;BME280;21773;50.010;19.972;2024-02-21T11:57:02;99024.22;;;20.72;84.05
35655;BME280;21773;50.010;19.972;2024-02-21T12:00:14;99024.75;;;22.00;81.87
35655;BME280;21773;50.010;19.972;2024-02-21T12:03:17;99027.59;;;22.56;76.17
35655;BME280;21773;50.010;19.972;2024-02-21T12:06:21;99018.06;;;22.48;74.92
35655;BME280;21773;50.010;19.972;2024-02-21T12:09:26;99021.41;;;21.79;76.78
35655;BME280;21773;50.010;19.972;2024-02-21T12:12:29;99017.63;;;21.17;80.80
35655;BME280;21773;50.010;19.972;2024-02-21T12:15:32;99022.38;;;20.63;85.09
35655;BME280;21773;50.010;19.972;2024-02-21T12:18:35;99020.19;;;20.06;90.07
35655;BME280;21773;50.010;19.972;2024-02-21T12:21:39;99017.06;;;19.43;95.38
35655;BME280;21773;50.010;19.972;2024-02-21T12:24:44;99019.28;;;18.85;100.00
35655;BME280;21773;50.010;19.972;2024-02-21T12:27:50;99010.75;;;18.51;100.00
35655;BME280;21773;50.010;19.972;2024-02-21T12:30:53;99013.94;;;18.23;100.00
35655;BME280;21773;50.010;19.972;2024-02-21T12:33:56;99016.28;;;17.94;100.00
35655;BME280;21773;50.010;19.972;2024-02-21T12:37:01;99011.94;;;17.93;100.00
35655;BME280;21773;50.010;19.972;2024-02-21T12:40:08;99004.94;;;17.60;100.00
35655;BME280;21773;50.010;19.972;2024-02-21T12:43:12;99009.47;;;17.50;100.00
35655;BME280;21773;50.010;19.972;2024-02-21T12:46:18;99009.94;;;17.37;100.00
35655;BME280;21773;50.010;19.972;2024-02-21T12:49:22;98980.91;;;17.15;100.00
35655;BME280;21773;50.010;19.972;2024-02-21T12:52:26;98993.00;;;17.29;100.00
35655;BME280;21773;50.010;19.972;2024-02-21T12:55:31;99002.69;;;17.15;100.00
35655;BME280;21773;50.010;19.972;2024-02-21T12:58:34;98995.28;;;17.06;100.00
35655;BME280;21773;50.010;19.972;2024-02-21T13:01:38;98996.38;;;17.05;100.00
35655;BME280;21773;50.010;19.972;2024-02-21T13:04:41;98997.53;;;16.82;100.00
35655;BME280;21773;50.010;19.972;2024-02-21T13:07:44;98992.28;;;16.70;100.00
35655;BME280;21773;50.010;19.972;2024-02-21T13:10:49;98947.97;;;16.53;100.00
35655;BME280;21773;50.010;19.972;2024-02-21T13:13:56;98964.66;;;16.88;100.00
35655;BME280;21773;50.010;19.972;2024-02-21T13:16:59;98983.19;;;16.92;100.00
35655;BME280;21773;50.010;19.972;2024-02-21T13:20:03;98991.81;;;16.78;100.00
35655;BME280;21773;50.010;19.972;2024-02-21T13:23:08;98983.03;;;16.44;100.00
35655;BME280;21773;50.010;19.972;2024-02-21T13:26:12;98986.59;;;16.23;100.00
35655;BME280;21773;50.010;19.972;2024-02-21T13:29:16;98976.94;;;16.11;100.00
35655;BME280;21773;50.010;19.972;2024-02-21T13:32:19;98960.09;;;15.87;100.00
35655;BME280;21773;50.010;19.972;2024-02-21T13:35:22;98981.19;;;15.80;100.00
35655;BME280;21773;50.010;19.972;2024-02-21T13:38:25;98978.28;;;15.65;100.00
35655;BME280;21773;50.010;19.972;2024-02-21T13:41:31;98969.97;;;15.33;100.00
35655;BME280;21773;50.010;19.972;2024-02-21T13:44:35;98957.50;;;14.98;100.00
35655;BME280;21773;50.010;19.972;2024-02-21T13:47:39;98964.06;;;14.86;100.00
35655;BME280;21773;50.010;19.972;2024-02-21T13:50:42;98941.41;;;14.75;100.00
35655;BME280;21773;50.010;19.972;2024-02-21T13:53:45;98946.47;;;14.71;100.00
35655;BME280;21773;50.010;19.972;2024-02-21T13:56:50;98968.94;;;14.84;100.00
35655;BME280;21773;50.010;19.972;2024-02-21T13:59:53;98971.06;;;14.82;100.00
35655;BME280;21773;50.010;19.972;2024-02-21T14:02:56;98952.66;;;14.84;100.00
35655;BME280;21773;50.010;19.972;2024-02-21T14:06:01;98948.81;;;14.80;100.00
35655;BME280;21773;50.010;19.972;2024-02-21T14:09:06;98949.69;;;14.68;100.00
35655;BME280;21773;50.010;19.972;2024-02-21T14:12:11;98950.53;;;14.69;100.00
35655;BME280;21773;50.010;19.972;2024-02-21T14:15:14;98943.50;;;14.56;100.00
35655;BME280;21773;50.010;19.972;2024-02-21T14:18:18;98948.28;;;14.49;100.00
35655;BME280;21773;50.010;19.972;2024-02-21T14:21:21;98958.50;;;14.30;100.00
35655;BME280;21773;50.010;19.972;2024-02-21T14:24:25;98948.41;;;14.26;100.00
35655;BME280;21773;50.010;19.972;2024-02-21T14:27:31;98935.63;;;14.10;100.00
35655;BME280;21773;50.010;19.972;2024-02-21T14:30:34;98939.69;;;13.96;100.00
35655;BME280;21773;50.010;19.972;2024-02-21T14:33:37;98935.47;;;13.88;100.00
35655;BME280;21773;50.010;19.972;2024-02-21T14:36:41;98930.00;;;13.71;100.00
35655;BME280;21773;50.010;19.972;2024-02-21T14:39:44;98932.13;;;13.69;100.00
35655;BME280;21773;50.010;19.972;2024-02-21T14:42:49;98918.56;;;13.41;100.00
35655;BME280;21773;50.010;19.972;2024-02-21T14:45:52;98926.75;;;13.58;100.00
35655;BME280;21773;50.010;19.972;2024-02-21T14:48:55;98920.97;;;13.54;100.00
35655;BME280;21773;50.010;19.972;2024-02-21T14:51:58;98927.47;;;13.53;100.00
35655;BME280;21773;50.010;19.972;2024-02-21T14:55:02;98927.59;;;13.47;100.00
35655;BME280;21773;50.010;19.972;2024-02-21T14:58:07;98916.06;;;13.39;100.00
35655;BME280;21773;50.010;19.972;2024-02-21T15:01:10;98925.50;;;13.37;100.00
35655;BME280;21773;50.010;19.972;2024-02-21T15:04:15;98919.03;;;13.38;100.00
35655;BME280;21773;50.010;19.972;2024-02-21T15:07:19;98913.88;;;13.25;100.00
35655;BME280;21773;50.010;19.972;2024-02-21T15:10:25;98905.75;;;13.25;100.00
35655;BME280;21773;50.010;19.972;2024-02-21T15:13:30;98895.41;;;13.22;100.00
35655;BME280;21773;50.010;19.972;2024-02-21T15:16:34;98897.28;;;13.21;100.00
35655;BME280;21773;50.010;19.972;2024-02-21T15:19:38;98891.03;;;13.21;100.00
35655;BME280;21773;50.010;19.972;2024-02-21T15:22:46;98898.44;;;13.25;100.00
35655;BME280;21773;50.010;19.972;2024-02-21T15:25:49;98888.09;;;13.22;100.00
35655;BME280;21773;50.010;19.972;2024-02-21T15:28:54;98899.63;;;13.06;100.00
35655;BME280;21773;50.010;19.972;2024-02-21T15:31:57;98883.53;;;12.99;100.00
35655;BME280;21773;50.010;19.972;2024-02-21T15:35:00;98876.00;;;12.90;100.00
35655;BME280;21773;50.010;19.972;2024-02-21T15:38:04;98883.19;;;12.84;100.00
35655;BME280;21773;50.010;19.972;2024-02-21T15:41:07;98867.53;;;12.98;100.00
35655;BME280;21773;50.010;19.972;2024-02-21T15:44:12;98872.22;;;13.02;100.00
35655;BME280;21773;50.010;19.972;2024-02-21T15:47:16;98859.63;;;13.08;100.00
35655;BME280;21773;50.010;19.972;2024-02-21T15:50:21;98859.28;;;13.05;100.00
35655;BME280;21773;50.010;19.972;2024-02-21T15:53:24;98861.63;;;13.01;100.00
35655;BME280;21773;50.010;19.972;2024-02-21T15:56:27;98863.88;;;13.04;100.00
35655;BME280;21773;50.010;19.972;2024-02-21T15:59:32;98872.59;;;12.94;100.00